Terminal Aerodrome Forecast
Issued by NWS Wilmington, NC

Home | Current Version | Previous Version | Text Only | Print | Product List | Glossary On
Versions: 1 2 3 4 5 6 7 8 9 10 11 12 13 14
954
FTUS42 KILM 270520
TAFLBT
TAF
KLBT 270520Z 2706/2806 VRB02KT P6SM SKC
     FM271200 19005KT P6SM SKC
     FM271900 15007KT P6SM FEW250
     FM280200 VRB02KT P6SM SKC=

USA.gov is the U.S. government's official web portal to all federal, state and local government web resources and services.